TimeCDT,TemperatureF,Dew PointF,Humidity,Sea Level PressureIn,VisibilityMPH,Wind Direction,Wind SpeedMPH,Gust SpeedMPH,PrecipitationIn,Events,Conditions,WindDirDegrees,DateUTC
12:53 AM,75.0,64.9,71,29.97,10.0,Calm,Calm,-,N/A,,Clear,0,2013-07-02 05:53:00
1:53 AM,75.9,64.9,69,29.96,10.0,Calm,Calm,-,N/A,,Scattered Clouds,0,2013-07-02 06:53:00
2:53 AM,75.9,66.0,71,29.96,10.0,Calm,Calm,-,N/A,,Clear,0,2013-07-02 07:53:00
3:53 AM,73.9,66.0,76,29.96,10.0,NW,4.6,-,N/A,,Clear,320,2013-07-02 08:53:00
4:53 AM,72.0,66.0,81,29.97,10.0,NW,6.9,-,N/A,,Clear,320,2013-07-02 09:53:00
5:53 AM,71.1,64.9,81,29.98,10.0,NNW,6.9,-,N/A,,Clear,330,2013-07-02 10:53:00
6:53 AM,71.1,64.9,81,29.99,10.0,NW,3.5,-,N/A,,Clear,320,2013-07-02 11:53:00
7:53 AM,75.0,62.1,64,30.01,10.0,NNW,4.6,-,N/A,,Mostly Cloudy,330,2013-07-02 12:53:00
9:53 AM,84.0,59.0,43,30.02,10.0,NNW,5.8,-,N/A,,Clear,330,2013-07-02 14:53:00
10:53 AM,89.1,57.0,34,30.02,10.0,NW,6.9,-,N/A,,Partly Cloudy,320,2013-07-02 15:53:00
11:53 AM,91.9,54.0,27,30.01,10.0,North,11.5,16.1,N/A,,Clear,360,2013-07-02 16:53:00
12:53 PM,91.0,53.1,27,29.99,10.0,Variable,3.5,18.4,N/A,,Scattered Clouds,0,2013-07-02 17:53:00
1:53 PM,93.9,53.1,25,29.98,10.0,North,6.9,-,N/A,,Partly Cloudy,10,2013-07-02 18:53:00
2:53 PM,95.0,52.0,23,29.95,10.0,NNW,10.4,19.6,N/A,,Partly Cloudy,330,2013-07-02 19:53:00
3:53 PM,95.0,52.0,23,29.93,10.0,Variable,4.6,-,N/A,,Mostly Cloudy,0,2013-07-02 20:53:00
4:53 PM,95.0,52.0,23,29.92,10.0,NNW,8.1,-,N/A,,Mostly Cloudy,340,2013-07-02 21:53:00
5:51 PM,89.6,62.6,40,29.92,10.0,SSE,18.4,-,N/A,,Mostly Cloudy,160,2013-07-02 22:51:00
5:53 PM,89.1,62.1,40,29.92,10.0,SSE,18.4,-,N/A,,Scattered Clouds,160,2013-07-02 22:53:00
6:53 PM,88.0,63.0,43,29.93,10.0,SSE,13.8,-,N/A,,Clear,160,2013-07-02 23:53:00
7:53 PM,84.9,61.0,44,29.95,10.0,SSE,10.4,-,N/A,,Clear,150,2013-07-03 00:53:00
8:53 PM,82.9,62.1,49,29.96,10.0,South,8.1,-,N/A,,Clear,170,2013-07-03 01:53:00
9:53 PM,82.0,66.0,58,29.97,10.0,SSE,8.1,-,N/A,,Clear,150,2013-07-03 02:53:00
10:53 PM,81.0,68.0,65,29.99,10.0,South,6.9,-,N/A,,Clear,170,2013-07-03 03:53:00
11:53 PM,82.9,69.1,63,29.99,10.0,South,8.1,-,N/A,,Clear,190,2013-07-03 04:53:00